sensor_id;sensor_type;location;lat;lon;timestamp;temperature;humidity
75105;DHT22;64778;47.314;8.466;2022-11-06T00:00:24;5.10;83.90
75105;DHT22;64778;47.314;8.466;2022-11-06T00:02:50;5.10;83.60
75105;DHT22;64778;47.314;8.466;2022-11-06T00:05:15;5.00;83.90
75105;DHT22;64778;47.314;8.466;2022-11-06T00:08:00;5.00;84.20
75105;DHT22;64778;47.314;8.466;2022-11-06T00:10:25;5.00;84.50
75105;DHT22;64778;47.314;8.466;2022-11-06T00:12:51;5.00;84.10
75105;DHT22;64778;47.314;8.466;2022-11-06T00:15:17;5.00;83.90
75105;DHT22;64778;47.314;8.466;2022-11-06T00:17:48;5.00;83.60
75105;DHT22;64778;47.314;8.466;2022-11-06T00:20:15;5.00;83.70
75105;DHT22;64778;47.314;8.466;2022-11-06T00:22:40;5.00;83.40
75105;DHT22;64778;47.314;8.466;2022-11-06T00:25:06;4.90;83.50
75105;DHT22;64778;47.314;8.466;2022-11-06T00:27:34;4.90;84.00
75105;DHT22;64778;47.314;8.466;2022-11-06T00:29:59;4.90;83.90
75105;DHT22;64778;47.314;8.466;2022-11-06T00:32:25;4.80;83.80
75105;DHT22;64778;47.314;8.466;2022-11-06T00:34:51;4.80;83.90
75105;DHT22;64778;47.314;8.466;2022-11-06T00:37:17;4.80;83.90
75105;DHT22;64778;47.314;8.466;2022-11-06T00:39:48;4.90;84.00
75105;DHT22;64778;47.314;8.466;2022-11-06T00:42:14;4.90;84.00
75105;DHT22;64778;47.314;8.466;2022-11-06T00:44:41;4.80;83.80
75105;DHT22;64778;47.314;8.466;2022-11-06T00:47:07;4.90;83.70
75105;DHT22;64778;47.314;8.466;2022-11-06T00:49:33;4.80;83.50
75105;DHT22;64778;47.314;8.466;2022-11-06T00:51:58;4.80;83.80
75105;DHT22;64778;47.314;8.466;2022-11-06T00:54:25;4.80;83.70
75105;DHT22;64778;47.314;8.466;2022-11-06T00:56:51;4.80;83.90
75105;DHT22;64778;47.314;8.466;2022-11-06T00:59:17;4.70;84.20
75105;DHT22;64778;47.314;8.466;2022-11-06T01:01:45;4.70;84.30
75105;DHT22;64778;47.314;8.466;2022-11-06T01:04:15;4.60;84.50
75105;DHT22;64778;47.314;8.466;2022-11-06T01:06:46;4.50;84.60
75105;DHT22;64778;47.314;8.466;2022-11-06T01:09:17;4.40;84.90
75105;DHT22;64778;47.314;8.466;2022-11-06T01:11:48;4.50;84.80
75105;DHT22;64778;47.314;8.466;2022-11-06T01:14:16;4.40;84.80
75105;DHT22;64778;47.314;8.466;2022-11-06T01:16:42;4.50;85.10
75105;DHT22;64778;47.314;8.466;2022-11-06T01:19:10;4.50;85.20
75105;DHT22;64778;47.314;8.466;2022-11-06T01:21:38;4.50;84.90
75105;DHT22;64778;47.314;8.466;2022-11-06T01:24:14;4.60;84.40
75105;DHT22;64778;47.314;8.466;2022-11-06T01:26:42;4.60;84.40
75105;DHT22;64778;47.314;8.466;2022-11-06T01:29:11;4.60;84.20
75105;DHT22;64778;47.314;8.466;2022-11-06T01:31:37;4.70;84.20
75105;DHT22;64778;47.314;8.466;2022-11-06T01:34:03;4.70;84.50
75105;DHT22;64778;47.314;8.466;2022-11-06T01:36:32;4.70;84.40
75105;DHT22;64778;47.314;8.466;2022-11-06T01:39:00;4.70;84.20
75105;DHT22;64778;47.314;8.466;2022-11-06T01:41:30;4.80;84.00
75105;DHT22;64778;47.314;8.466;2022-11-06T01:43:59;4.80;83.50
75105;DHT22;64778;47.314;8.466;2022-11-06T01:46:30;4.80;83.40
75105;DHT22;64778;47.314;8.466;2022-11-06T01:49:08;4.80;83.30
75105;DHT22;64778;47.314;8.466;2022-11-06T01:51:51;4.80;83.20
75105;DHT22;64778;47.314;8.466;2022-11-06T01:54:21;4.70;82.90
75105;DHT22;64778;47.314;8.466;2022-11-06T01:56:49;4.70;82.70
75105;DHT22;64778;47.314;8.466;2022-11-06T01:59:18;4.60;82.70
75105;DHT22;64778;47.314;8.466;2022-11-06T02:01:45;4.60;82.90
75105;DHT22;64778;47.314;8.466;2022-11-06T02:04:18;4.60;83.00
75105;DHT22;64778;47.314;8.466;2022-11-06T02:06:46;4.50;83.10
75105;DHT22;64778;47.314;8.466;2022-11-06T02:09:18;4.40;83.00
75105;DHT22;64778;47.314;8.466;2022-11-06T02:12:10;4.40;83.30
75105;DHT22;64778;47.314;8.466;2022-11-06T02:19:59;4.30;83.70
75105;DHT22;64778;47.314;8.466;2022-11-06T02:22:45;4.30;83.70
75105;DHT22;64778;47.314;8.466;2022-11-06T02:27:47;4.40;83.50
75105;DHT22;64778;47.314;8.466;2022-11-06T02:30:18;4.40;83.50
75105;DHT22;64778;47.314;8.466;2022-11-06T02:32:57;4.40;83.50
75105;DHT22;64778;47.314;8.466;2022-11-06T02:35:49;4.40;83.70
75105;DHT22;64778;47.314;8.466;2022-11-06T02:38:22;4.30;83.40
75105;DHT22;64778;47.314;8.466;2022-11-06T02:40:58;4.30;83.50
75105;DHT22;64778;47.314;8.466;2022-11-06T02:43:31;4.30;83.70
75105;DHT22;64778;47.314;8.466;2022-11-06T02:46:05;4.30;83.70
75105;DHT22;64778;47.314;8.466;2022-11-06T02:48:37;4.20;83.30
75105;DHT22;64778;47.314;8.466;2022-11-06T02:51:08;4.20;83.20
75105;DHT22;64778;47.314;8.466;2022-11-06T02:53:41;4.20;83.30
75105;DHT22;64778;47.314;8.466;2022-11-06T02:56:11;4.10;83.00
75105;DHT22;64778;47.314;8.466;2022-11-06T02:58:43;4.10;83.20
75105;DHT22;64778;47.314;8.466;2022-11-06T03:03:59;4.00;82.80
75105;DHT22;64778;47.314;8.466;2022-11-06T03:06:46;4.00;83.20
75105;DHT22;64778;47.314;8.466;2022-11-06T03:09:18;3.90;83.70
75105;DHT22;64778;47.314;8.466;2022-11-06T03:11:50;3.90;83.90
75105;DHT22;64778;47.314;8.466;2022-11-06T03:15:02;4.00;83.90
75105;DHT22;64778;47.314;8.466;2022-11-06T03:17:44;4.00;83.90
75105;DHT22;64778;47.314;8.466;2022-11-06T03:20:34;4.00;83.80
75105;DHT22;64778;47.314;8.466;2022-11-06T03:25:42;4.00;84.10
75105;DHT22;64778;47.314;8.466;2022-11-06T03:30:49;4.00;84.40
75105;DHT22;64778;47.314;8.466;2022-11-06T03:33:29;4.00;84.30
75105;DHT22;64778;47.314;8.466;2022-11-06T03:36:19;4.10;84.20
75105;DHT22;64778;47.314;8.466;2022-11-06T03:38:51;4.10;84.10
75105;DHT22;64778;47.314;8.466;2022-11-06T03:41:23;4.10;84.10
75105;DHT22;64778;47.314;8.466;2022-11-06T03:43:55;4.10;83.90
75105;DHT22;64778;47.314;8.466;2022-11-06T03:46:22;4.10;83.80
75105;DHT22;64778;47.314;8.466;2022-11-06T03:49:17;4.00;83.90
75105;DHT22;64778;47.314;8.466;2022-11-06T03:51:52;4.00;84.00
75105;DHT22;64778;47.314;8.466;2022-11-06T03:54:24;4.00;83.90
75105;DHT22;64778;47.314;8.466;2022-11-06T03:56:53;4.00;84.10
75105;DHT22;64778;47.314;8.466;2022-11-06T03:59:23;4.00;84.50
75105;DHT22;64778;47.314;8.466;2022-11-06T04:01:53;4.00;84.50
75105;DHT22;64778;47.314;8.466;2022-11-06T04:04:33;4.10;84.50
75105;DHT22;64778;47.314;8.466;2022-11-06T04:07:07;4.10;84.50
75105;DHT22;64778;47.314;8.466;2022-11-06T04:09:40;4.20;83.70
75105;DHT22;64778;47.314;8.466;2022-11-06T04:12:27;4.10;83.50
75105;DHT22;64778;47.314;8.466;2022-11-06T04:15:15;4.20;83.40
75105;DHT22;64778;47.314;8.466;2022-11-06T04:17:41;4.20;83.30
75105;DHT22;64778;47.314;8.466;2022-11-06T04:20:12;4.20;83.20
75105;DHT22;64778;47.314;8.466;2022-11-06T04:25:34;4.10;83.40
75105;DHT22;64778;47.314;8.466;2022-11-06T04:31:18;4.20;83.80
75105;DHT22;64778;47.314;8.466;2022-11-06T04:33:49;4.20;83.90
75105;DHT22;64778;47.314;8.466;2022-11-06T04:36:54;4.30;83.80
75105;DHT22;64778;47.314;8.466;2022-11-06T04:44:42;4.30;83.90
75105;DHT22;64778;47.314;8.466;2022-11-06T04:47:18;4.30;84.00
75105;DHT22;64778;47.314;8.466;2022-11-06T04:49:44;4.30;84.30
75105;DHT22;64778;47.314;8.466;2022-11-06T04:52:15;4.30;84.60
75105;DHT22;64778;47.314;8.466;2022-11-06T04:54:44;4.30;84.70
75105;DHT22;64778;47.314;8.466;2022-11-06T04:57:10;4.30;85.00
75105;DHT22;64778;47.314;8.466;2022-11-06T04:59:36;3.90;86.00
75105;DHT22;64778;47.314;8.466;2022-11-06T05:02:01;3.80;86.60
75105;DHT22;64778;47.314;8.466;2022-11-06T05:04:27;3.80;86.60
75105;DHT22;64778;47.314;8.466;2022-11-06T05:06:53;3.80;85.50
75105;DHT22;64778;47.314;8.466;2022-11-06T05:09:20;3.60;84.80
75105;DHT22;64778;47.314;8.466;2022-11-06T05:11:48;3.60;85.40
75105;DHT22;64778;47.314;8.466;2022-11-06T05:14:14;3.50;85.90
75105;DHT22;64778;47.314;8.466;2022-11-06T05:16:42;3.50;86.30
75105;DHT22;64778;47.314;8.466;2022-11-06T05:19:11;3.60;86.80
75105;DHT22;64778;47.314;8.466;2022-11-06T05:21:38;3.60;86.90
75105;DHT22;64778;47.314;8.466;2022-11-06T05:24:23;3.60;86.70
75105;DHT22;64778;47.314;8.466;2022-11-06T05:26:48;3.60;86.50
75105;DHT22;64778;47.314;8.466;2022-11-06T05:29:14;3.60;86.40
75105;DHT22;64778;47.314;8.466;2022-11-06T05:31:40;3.70;86.10
75105;DHT22;64778;47.314;8.466;2022-11-06T05:34:05;3.70;85.90
75105;DHT22;64778;47.314;8.466;2022-11-06T05:36:31;3.80;86.10
75105;DHT22;64778;47.314;8.466;2022-11-06T05:38:57;3.90;85.90
75105;DHT22;64778;47.314;8.466;2022-11-06T05:41:24;4.00;85.70
75105;DHT22;64778;47.314;8.466;2022-11-06T05:43:50;3.90;86.50
75105;DHT22;64778;47.314;8.466;2022-11-06T05:46:18;3.90;86.50
75105;DHT22;64778;47.314;8.466;2022-11-06T05:48:44;3.90;86.70
75105;DHT22;64778;47.314;8.466;2022-11-06T05:51:09;4.00;86.70
75105;DHT22;64778;47.314;8.466;2022-11-06T05:53:35;4.00;87.00
75105;DHT22;64778;47.314;8.466;2022-11-06T05:56:06;4.20;87.20
75105;DHT22;64778;47.314;8.466;2022-11-06T05:58:34;4.20;87.10
75105;DHT22;64778;47.314;8.466;2022-11-06T06:00:59;4.30;87.50
75105;DHT22;64778;47.314;8.466;2022-11-06T06:03:28;4.40;87.40
75105;DHT22;64778;47.314;8.466;2022-11-06T06:05:53;4.40;87.30
75105;DHT22;64778;47.314;8.466;2022-11-06T06:08:19;4.40;87.30
75105;DHT22;64778;47.314;8.466;2022-11-06T06:10:46;4.40;87.20
75105;DHT22;64778;47.314;8.466;2022-11-06T06:13:14;4.50;87.20
75105;DHT22;64778;47.314;8.466;2022-11-06T06:15:43;4.50;87.10
75105;DHT22;64778;47.314;8.466;2022-11-06T06:18:10;4.50;86.80
75105;DHT22;64778;47.314;8.466;2022-11-06T06:20:35;4.60;86.80
75105;DHT22;64778;47.314;8.466;2022-11-06T06:23:01;4.60;86.80
75105;DHT22;64778;47.314;8.466;2022-11-06T06:25:27;4.50;87.30
75105;DHT22;64778;47.314;8.466;2022-11-06T06:27:53;4.40;87.50
75105;DHT22;64778;47.314;8.466;2022-11-06T06:30:20;4.40;87.60
75105;DHT22;64778;47.314;8.466;2022-11-06T06:32:46;4.40;87.70
75105;DHT22;64778;47.314;8.466;2022-11-06T06:35:15;4.50;87.80
75105;DHT22;64778;47.314;8.466;2022-11-06T06:37:42;4.60;87.70
75105;DHT22;64778;47.314;8.466;2022-11-06T06:40:09;4.60;87.50
75105;DHT22;64778;47.314;8.466;2022-11-06T06:42:35;4.70;87.20
75105;DHT22;64778;47.314;8.466;2022-11-06T06:45:05;4.80;87.10
75105;DHT22;64778;47.314;8.466;2022-11-06T06:47:31;4.90;87.00
75105;DHT22;64778;47.314;8.466;2022-11-06T06:49:59;5.00;86.80
75105;DHT22;64778;47.314;8.466;2022-11-06T06:52:24;5.00;86.60
75105;DHT22;64778;47.314;8.466;2022-11-06T06:54:50;5.10;86.50
75105;DHT22;64778;47.314;8.466;2022-11-06T06:57:16;5.20;86.60
75105;DHT22;64778;47.314;8.466;2022-11-06T06:59:41;5.20;86.50
75105;DHT22;64778;47.314;8.466;2022-11-06T07:02:07;5.10;85.20
75105;DHT22;64778;47.314;8.466;2022-11-06T07:04:35;5.10;85.90
75105;DHT22;64778;47.314;8.466;2022-11-06T07:07:06;5.10;85.90
75105;DHT22;64778;47.314;8.466;2022-11-06T07:09:32;5.20;85.70
75105;DHT22;64778;47.314;8.466;2022-11-06T07:11:59;5.20;85.60
75105;DHT22;64778;47.314;8.466;2022-11-06T07:14:25;5.20;85.60
75105;DHT22;64778;47.314;8.466;2022-11-06T07:16:51;5.20;85.60
75105;DHT22;64778;47.314;8.466;2022-11-06T07:19:16;5.30;85.70
75105;DHT22;64778;47.314;8.466;2022-11-06T07:21:42;5.30;85.80
75105;DHT22;64778;47.314;8.466;2022-11-06T07:24:10;5.40;85.90
75105;DHT22;64778;47.314;8.466;2022-11-06T07:26:35;5.40;86.20
75105;DHT22;64778;47.314;8.466;2022-11-06T07:29:01;5.40;85.80
75105;DHT22;64778;47.314;8.466;2022-11-06T07:31:27;5.30;86.30
75105;DHT22;64778;47.314;8.466;2022-11-06T07:33:54;5.40;86.40
75105;DHT22;64778;47.314;8.466;2022-11-06T07:36:20;5.40;85.90
75105;DHT22;64778;47.314;8.466;2022-11-06T07:38:48;5.40;86.30
75105;DHT22;64778;47.314;8.466;2022-11-06T07:41:14;5.30;86.10
75105;DHT22;64778;47.314;8.466;2022-11-06T07:43:43;5.40;86.60
75105;DHT22;64778;47.314;8.466;2022-11-06T07:46:11;5.40;85.00
75105;DHT22;64778;47.314;8.466;2022-11-06T07:48:37;5.30;86.60
75105;DHT22;64778;47.314;8.466;2022-11-06T07:51:06;5.40;86.60
75105;DHT22;64778;47.314;8.466;2022-11-06T07:53:32;5.50;86.20
75105;DHT22;64778;47.314;8.466;2022-11-06T07:56:01;5.60;86.10
75105;DHT22;64778;47.314;8.466;2022-11-06T07:58:26;5.60;86.60
75105;DHT22;64778;47.314;8.466;2022-11-06T08:00:57;5.70;85.20
75105;DHT22;64778;47.314;8.466;2022-11-06T08:03:25;5.70;85.70
75105;DHT22;64778;47.314;8.466;2022-11-06T08:05:57;5.70;85.50
75105;DHT22;64778;47.314;8.466;2022-11-06T08:08:22;5.90;85.60
75105;DHT22;64778;47.314;8.466;2022-11-06T08:10:50;6.10;85.30
75105;DHT22;64778;47.314;8.466;2022-11-06T08:13:21;6.20;84.40
75105;DHT22;64778;47.314;8.466;2022-11-06T08:15:47;6.20;82.90
75105;DHT22;64778;47.314;8.466;2022-11-06T08:18:13;6.20;82.70
75105;DHT22;64778;47.314;8.466;2022-11-06T08:20:39;6.10;83.50
75105;DHT22;64778;47.314;8.466;2022-11-06T08:23:10;6.10;84.10
75105;DHT22;64778;47.314;8.466;2022-11-06T08:25:40;6.30;94.00
75105;DHT22;64778;47.314;8.466;2022-11-06T08:28:11;8.00;99.00
75105;DHT22;64778;47.314;8.466;2022-11-06T08:30:43;9.20;99.90
75105;DHT22;64778;47.314;8.466;2022-11-06T08:33:10;9.60;99.90
75105;DHT22;64778;47.314;8.466;2022-11-06T08:35:38;9.90;93.30
75105;DHT22;64778;47.314;8.466;2022-11-06T08:38:03;10.40;89.40
75105;DHT22;64778;47.314;8.466;2022-11-06T08:40:31;10.70;83.40
75105;DHT22;64778;47.314;8.466;2022-11-06T08:43:06;11.00;79.40
75105;DHT22;64778;47.314;8.466;2022-11-06T08:45:36;11.30;77.40
75105;DHT22;64778;47.314;8.466;2022-11-06T08:48:05;11.00;69.70
75105;DHT22;64778;47.314;8.466;2022-11-06T08:50:33;10.00;72.60
75105;DHT22;64778;47.314;8.466;2022-11-06T08:53:00;9.10;75.00
75105;DHT22;64778;47.314;8.466;2022-11-06T08:55:29;8.50;77.50
75105;DHT22;64778;47.314;8.466;2022-11-06T08:58:00;7.90;79.40
75105;DHT22;64778;47.314;8.466;2022-11-06T09:00:26;7.60;81.30
75105;DHT22;64778;47.314;8.466;2022-11-06T09:03:03;7.40;82.10
75105;DHT22;64778;47.314;8.466;2022-11-06T09:05:30;7.20;82.80
75105;DHT22;64778;47.314;8.466;2022-11-06T09:07:55;7.00;81.60
75105;DHT22;64778;47.314;8.466;2022-11-06T09:10:21;6.50;83.80
75105;DHT22;64778;47.314;8.466;2022-11-06T09:12:47;6.20;86.20
75105;DHT22;64778;47.314;8.466;2022-11-06T09:15:15;6.10;88.40
75105;DHT22;64778;47.314;8.466;2022-11-06T09:17:44;5.90;88.00
75105;DHT22;64778;47.314;8.466;2022-11-06T09:20:10;6.00;89.20
75105;DHT22;64778;47.314;8.466;2022-11-06T09:22:40;6.00;87.40
75105;DHT22;64778;47.314;8.466;2022-11-06T09:25:09;6.10;86.00
75105;DHT22;64778;47.314;8.466;2022-11-06T09:27:51;5.70;88.10
75105;DHT22;64778;47.314;8.466;2022-11-06T09:30:19;5.80;87.70
75105;DHT22;64778;47.314;8.466;2022-11-06T09:32:59;6.00;88.00
75105;DHT22;64778;47.314;8.466;2022-11-06T09:35:26;6.10;87.40
75105;DHT22;64778;47.314;8.466;2022-11-06T09:37:52;6.30;87.40
75105;DHT22;64778;47.314;8.466;2022-11-06T09:45:52;6.70;85.10
75105;DHT22;64778;47.314;8.466;2022-11-06T09:48:21;6.70;84.30
75105;DHT22;64778;47.314;8.466;2022-11-06T09:55:48;6.00;87.00
75105;DHT22;64778;47.314;8.466;2022-11-06T09:58:22;6.00;87.30
75105;DHT22;64778;47.314;8.466;2022-11-06T10:00:51;6.00;87.00
75105;DHT22;64778;47.314;8.466;2022-11-06T10:03:25;6.00;86.50
75105;DHT22;64778;47.314;8.466;2022-11-06T10:05:54;6.10;86.60
75105;DHT22;64778;47.314;8.466;2022-11-06T10:08:20;6.10;86.70
75105;DHT22;64778;47.314;8.466;2022-11-06T10:13:53;6.20;86.10
75105;DHT22;64778;47.314;8.466;2022-11-06T10:19:09;6.00;86.20
75105;DHT22;64778;47.314;8.466;2022-11-06T10:26:57;6.20;86.90
75105;DHT22;64778;47.314;8.466;2022-11-06T10:32:33;6.30;86.10
75105;DHT22;64778;47.314;8.466;2022-11-06T10:35:28;6.30;86.30
75105;DHT22;64778;47.314;8.466;2022-11-06T10:40:28;6.40;85.30
75105;DHT22;64778;47.314;8.466;2022-11-06T10:43:05;6.20;86.10
75105;DHT22;64778;47.314;8.466;2022-11-06T10:45:35;6.00;86.60
75105;DHT22;64778;47.314;8.466;2022-11-06T10:48:32;6.10;87.00
75105;DHT22;64778;47.314;8.466;2022-11-06T10:59:31;5.70;87.50
75105;DHT22;64778;47.314;8.466;2022-11-06T11:01:57;5.80;88.10
75105;DHT22;64778;47.314;8.466;2022-11-06T11:04:22;5.80;86.30
75105;DHT22;64778;47.314;8.466;2022-11-06T11:06:50;5.70;87.00
75105;DHT22;64778;47.314;8.466;2022-11-06T11:11:53;5.60;86.50
75105;DHT22;64778;47.314;8.466;2022-11-06T11:14:27;5.50;88.20
75105;DHT22;64778;47.314;8.466;2022-11-06T11:16:54;5.60;86.30
75105;DHT22;64778;47.314;8.466;2022-11-06T11:19:34;5.40;86.60
75105;DHT22;64778;47.314;8.466;2022-11-06T11:22:24;5.40;86.60
75105;DHT22;64778;47.314;8.466;2022-11-06T11:25:03;5.50;86.00
75105;DHT22;64778;47.314;8.466;2022-11-06T11:27:31;5.70;85.40
75105;DHT22;64778;47.314;8.466;2022-11-06T11:29:59;5.90;83.80
75105;DHT22;64778;47.314;8.466;2022-11-06T11:32:28;5.90;84.00
75105;DHT22;64778;47.314;8.466;2022-11-06T11:34:57;5.70;84.90
75105;DHT22;64778;47.314;8.466;2022-11-06T11:37:33;5.80;84.60
75105;DHT22;64778;47.314;8.466;2022-11-06T11:40:34;6.00;84.80
75105;DHT22;64778;47.314;8.466;2022-11-06T11:46:16;6.20;81.40
75105;DHT22;64778;47.314;8.466;2022-11-06T11:51:35;6.10;82.20
75105;DHT22;64778;47.314;8.466;2022-11-06T11:56:31;6.50;81.60
75105;DHT22;64778;47.314;8.466;2022-11-06T11:59:01;6.40;81.50
75105;DHT22;64778;47.314;8.466;2022-11-06T12:01:38;6.30;82.00
75105;DHT22;64778;47.314;8.466;2022-11-06T12:06:52;6.40;82.50
75105;DHT22;64778;47.314;8.466;2022-11-06T12:09:18;6.60;81.10
75105;DHT22;64778;47.314;8.466;2022-11-06T12:11:44;6.80;80.50
75105;DHT22;64778;47.314;8.466;2022-11-06T12:14:30;6.70;81.30
75105;DHT22;64778;47.314;8.466;2022-11-06T12:17:03;7.00;81.30
75105;DHT22;64778;47.314;8.466;2022-11-06T12:19:32;7.30;78.60
75105;DHT22;64778;47.314;8.466;2022-11-06T12:22:09;7.30;79.20
75105;DHT22;64778;47.314;8.466;2022-11-06T12:24:49;7.50;79.20
75105;DHT22;64778;47.314;8.466;2022-11-06T12:27:23;7.50;77.20
75105;DHT22;64778;47.314;8.466;2022-11-06T12:35:25;7.80;77.60
75105;DHT22;64778;47.314;8.466;2022-11-06T12:38:03;8.10;75.40
75105;DHT22;64778;47.314;8.466;2022-11-06T12:40:37;8.60;74.80
75105;DHT22;64778;47.314;8.466;2022-11-06T12:43:19;8.70;74.60
75105;DHT22;64778;47.314;8.466;2022-11-06T12:46:02;9.00;73.90
75105;DHT22;64778;47.314;8.466;2022-11-06T12:51:43;8.80;73.90
75105;DHT22;64778;47.314;8.466;2022-11-06T13:05:15;7.90;76.80
75105;DHT22;64778;47.314;8.466;2022-11-06T13:18:33;6.90;82.00
75105;DHT22;64778;47.314;8.466;2022-11-06T13:21:11;7.00;82.20
75105;DHT22;64778;47.314;8.466;2022-11-06T13:23:43;7.00;81.50
75105;DHT22;64778;47.314;8.466;2022-11-06T13:28:51;7.10;81.30
75105;DHT22;64778;47.314;8.466;2022-11-06T13:31:21;6.90;81.80
75105;DHT22;64778;47.314;8.466;2022-11-06T13:33:56;7.10;81.90
75105;DHT22;64778;47.314;8.466;2022-11-06T13:36:23;7.00;82.30
75105;DHT22;64778;47.314;8.466;2022-11-06T13:38:59;7.00;82.50
75105;DHT22;64778;47.314;8.466;2022-11-06T13:41:29;7.00;83.10
75105;DHT22;64778;47.314;8.466;2022-11-06T13:44:02;7.10;83.00
75105;DHT22;64778;47.314;8.466;2022-11-06T13:51:51;7.60;81.60
75105;DHT22;64778;47.314;8.466;2022-11-06T14:00:39;8.00;79.60
75105;DHT22;64778;47.314;8.466;2022-11-06T14:06:05;9.10;78.20
75105;DHT22;64778;47.314;8.466;2022-11-06T14:11:09;9.60;75.10
75105;DHT22;64778;47.314;8.466;2022-11-06T14:13:38;9.40;75.30
75105;DHT22;64778;47.314;8.466;2022-11-06T14:18:41;9.10;76.80
75105;DHT22;64778;47.314;8.466;2022-11-06T14:26:52;8.70;77.80
75105;DHT22;64778;47.314;8.466;2022-11-06T14:34:39;9.20;76.80
75105;DHT22;64778;47.314;8.466;2022-11-06T14:42:51;8.80;78.10
75105;DHT22;64778;47.314;8.466;2022-11-06T14:45:19;8.60;79.80
75105;DHT22;64778;47.314;8.466;2022-11-06T14:47:56;8.60;80.00
75105;DHT22;64778;47.314;8.466;2022-11-06T14:50:35;8.50;80.10
75105;DHT22;64778;47.314;8.466;2022-11-06T14:53:27;8.40;80.50
75105;DHT22;64778;47.314;8.466;2022-11-06T14:56:00;8.40;80.80
75105;DHT22;64778;47.314;8.466;2022-11-06T14:58:37;8.40;81.60
75105;DHT22;64778;47.314;8.466;2022-11-06T15:03:49;8.20;81.90
75105;DHT22;64778;47.314;8.466;2022-11-06T15:16:43;8.60;80.70
75105;DHT22;64778;47.314;8.466;2022-11-06T15:19:31;8.70;80.20
75105;DHT22;64778;47.314;8.466;2022-11-06T15:24:51;8.80;80.10
75105;DHT22;64778;47.314;8.466;2022-11-06T15:27:24;8.70;80.00
75105;DHT22;64778;47.314;8.466;2022-11-06T15:29:53;8.50;80.70
75105;DHT22;64778;47.314;8.466;2022-11-06T15:32:23;8.40;81.00
75105;DHT22;64778;47.314;8.466;2022-11-06T15:37:34;8.20;81.80
75105;DHT22;64778;47.314;8.466;2022-11-06T15:40:02;8.10;82.30
75105;DHT22;64778;47.314;8.466;2022-11-06T15:42:30;7.90;83.10
75105;DHT22;64778;47.314;8.466;2022-11-06T15:45:09;7.80;83.50
75105;DHT22;64778;47.314;8.466;2022-11-06T15:50:25;7.80;83.70
75105;DHT22;64778;47.314;8.466;2022-11-06T15:53:07;7.80;83.80
75105;DHT22;64778;47.314;8.466;2022-11-06T15:55:43;7.90;83.90
75105;DHT22;64778;47.314;8.466;2022-11-06T16:00:46;7.80;84.10
75105;DHT22;64778;47.314;8.466;2022-11-06T16:03:15;7.80;84.00
75105;DHT22;64778;47.314;8.466;2022-11-06T16:05:42;7.80;83.80
75105;DHT22;64778;47.314;8.466;2022-11-06T16:08:14;7.80;83.70
75105;DHT22;64778;47.314;8.466;2022-11-06T16:10:44;7.70;83.80
75105;DHT22;64778;47.314;8.466;2022-11-06T16:13:17;7.70;83.90
75105;DHT22;64778;47.314;8.466;2022-11-06T16:15:50;7.70;88.40
75105;DHT22;64778;47.314;8.466;2022-11-06T16:23:23;8.10;83.30
75105;DHT22;64778;47.314;8.466;2022-11-06T16:25:59;8.30;84.20
75105;DHT22;64778;47.314;8.466;2022-11-06T16:28:32;8.30;83.30
75105;DHT22;64778;47.314;8.466;2022-11-06T16:31:08;8.50;85.60
75105;DHT22;64778;47.314;8.466;2022-11-06T16:33:37;8.50;81.80
75105;DHT22;64778;47.314;8.466;2022-11-06T16:36:12;8.50;83.00
75105;DHT22;64778;47.314;8.466;2022-11-06T16:38:43;8.70;83.90
75105;DHT22;64778;47.314;8.466;2022-11-06T16:41:13;8.70;82.40
75105;DHT22;64778;47.314;8.466;2022-11-06T16:47:15;8.70;81.20
75105;DHT22;64778;47.314;8.466;2022-11-06T16:52:29;8.80;80.10
75105;DHT22;64778;47.314;8.466;2022-11-06T16:57:35;8.50;80.50
75105;DHT22;64778;47.314;8.466;2022-11-06T17:00:07;8.30;81.10
75105;DHT22;64778;47.314;8.466;2022-11-06T17:05:22;8.00;82.30
75105;DHT22;64778;47.314;8.466;2022-11-06T17:10:58;7.90;82.40
75105;DHT22;64778;47.314;8.466;2022-11-06T17:13:33;7.80;82.30
75105;DHT22;64778;47.314;8.466;2022-11-06T17:16:03;7.60;83.20
75105;DHT22;64778;47.314;8.466;2022-11-06T17:20:56;7.20;84.80
75105;DHT22;64778;47.314;8.466;2022-11-06T17:23:25;7.20;84.80
75105;DHT22;64778;47.314;8.466;2022-11-06T17:26:40;7.10;85.30
75105;DHT22;64778;47.314;8.466;2022-11-06T17:28:46;7.20;85.10
75105;DHT22;64778;47.314;8.466;2022-11-06T17:31:14;7.20;85.00
75105;DHT22;64778;47.314;8.466;2022-11-06T17:33:43;7.20;84.90
75105;DHT22;64778;47.314;8.466;2022-11-06T17:36:32;7.20;85.20
75105;DHT22;64778;47.314;8.466;2022-11-06T17:38:59;7.00;85.80
75105;DHT22;64778;47.314;8.466;2022-11-06T17:41:24;7.00;86.00
75105;DHT22;64778;47.314;8.466;2022-11-06T17:44:05;7.10;85.80
75105;DHT22;64778;47.314;8.466;2022-11-06T17:46:33;7.00;85.90
75105;DHT22;64778;47.314;8.466;2022-11-06T17:49:01;7.10;85.90
75105;DHT22;64778;47.314;8.466;2022-11-06T17:51:28;7.10;85.60
75105;DHT22;64778;47.314;8.466;2022-11-06T17:54:31;7.10;85.60
75105;DHT22;64778;47.314;8.466;2022-11-06T17:57:01;7.00;85.60
75105;DHT22;64778;47.314;8.466;2022-11-06T17:59:30;6.90;85.50
75105;DHT22;64778;47.314;8.466;2022-11-06T18:01:58;6.90;85.80
75105;DHT22;64778;47.314;8.466;2022-11-06T18:04:27;7.00;86.00
75105;DHT22;64778;47.314;8.466;2022-11-06T18:06:55;7.00;85.80
75105;DHT22;64778;47.314;8.466;2022-11-06T18:09:24;7.00;85.50
75105;DHT22;64778;47.314;8.466;2022-11-06T18:11:52;7.10;85.50
75105;DHT22;64778;47.314;8.466;2022-11-06T18:14:19;7.10;85.70
75105;DHT22;64778;47.314;8.466;2022-11-06T18:16:48;7.10;85.40
75105;DHT22;64778;47.314;8.466;2022-11-06T18:19:16;7.10;85.40
75105;DHT22;64778;47.314;8.466;2022-11-06T18:21:42;7.00;85.70
75105;DHT22;64778;47.314;8.466;2022-11-06T18:24:07;7.00;85.80
75105;DHT22;64778;47.314;8.466;2022-11-06T18:26:36;7.00;85.90
75105;DHT22;64778;47.314;8.466;2022-11-06T18:29:05;7.10;85.90
75105;DHT22;64778;47.314;8.466;2022-11-06T18:31:34;7.20;85.70
75105;DHT22;64778;47.314;8.466;2022-11-06T18:34:03;7.20;85.80
75105;DHT22;64778;47.314;8.466;2022-11-06T18:36:32;7.20;85.80
75105;DHT22;64778;47.314;8.466;2022-11-06T18:38:59;7.20;85.60
75105;DHT22;64778;47.314;8.466;2022-11-06T18:41:25;7.30;85.80
75105;DHT22;64778;47.314;8.466;2022-11-06T18:43:55;7.10;85.80
75105;DHT22;64778;47.314;8.466;2022-11-06T18:46:22;7.10;86.10
75105;DHT22;64778;47.314;8.466;2022-11-06T18:48:48;7.10;86.00
75105;DHT22;64778;47.314;8.466;2022-11-06T18:51:19;7.10;85.90
75105;DHT22;64778;47.314;8.466;2022-11-06T18:53:48;7.20;86.20
75105;DHT22;64778;47.314;8.466;2022-11-06T18:56:16;7.20;86.20
75105;DHT22;64778;47.314;8.466;2022-11-06T18:58:43;7.30;86.00
75105;DHT22;64778;47.314;8.466;2022-11-06T19:01:13;7.30;85.70
75105;DHT22;64778;47.314;8.466;2022-11-06T19:03:40;7.20;86.10
75105;DHT22;64778;47.314;8.466;2022-11-06T19:06:08;7.20;86.00
75105;DHT22;64778;47.314;8.466;2022-11-06T19:08:36;7.20;86.30
75105;DHT22;64778;47.314;8.466;2022-11-06T19:11:06;7.20;86.30
75105;DHT22;64778;47.314;8.466;2022-11-06T19:13:33;7.20;86.40
75105;DHT22;64778;47.314;8.466;2022-11-06T19:15:59;7.30;86.70
75105;DHT22;64778;47.314;8.466;2022-11-06T19:18:28;7.30;86.30